sensor_id;sensor_type;location;lat;lon;timestamp;temperature;humidity
23873;DHT22;42884;50.718;4.630;2023-11-19T00:01:49;14.50;99.90
23873;DHT22;42884;50.718;4.630;2023-11-19T00:04:14;14.60;99.90
23873;DHT22;42884;50.718;4.630;2023-11-19T00:06:40;14.50;99.90
23873;DHT22;42884;50.718;4.630;2023-11-19T00:09:09;14.60;99.90
23873;DHT22;42884;50.718;4.630;2023-11-19T00:11:35;14.60;99.90
23873;DHT22;42884;50.718;4.630;2023-11-19T00:14:01;14.50;99.90
23873;DHT22;42884;50.718;4.630;2023-11-19T00:16:27;14.60;99.90
23873;DHT22;42884;50.718;4.630;2023-11-19T00:18:57;14.50;99.90
23873;DHT22;42884;50.718;4.630;2023-11-19T00:21:25;14.50;99.90
23873;DHT22;42884;50.718;4.630;2023-11-19T00:23:54;14.50;99.90
23873;DHT22;42884;50.718;4.630;2023-11-19T00:26:25;14.50;99.90
23873;DHT22;42884;50.718;4.630;2023-11-19T00:28:55;14.60;99.90
23873;DHT22;42884;50.718;4.630;2023-11-19T00:31:21;14.60;99.90
23873;DHT22;42884;50.718;4.630;2023-11-19T00:33:53;14.50;99.90
23873;DHT22;42884;50.718;4.630;2023-11-19T00:36:22;14.60;99.90
23873;DHT22;42884;50.718;4.630;2023-11-19T00:38:50;14.60;99.90
23873;DHT22;42884;50.718;4.630;2023-11-19T00:41:19;14.50;99.90
23873;DHT22;42884;50.718;4.630;2023-11-19T00:43:45;14.50;99.90
23873;DHT22;42884;50.718;4.630;2023-11-19T00:46:10;14.60;99.90
23873;DHT22;42884;50.718;4.630;2023-11-19T00:48:40;14.50;99.90
23873;DHT22;42884;50.718;4.630;2023-11-19T00:51:06;14.40;99.90
23873;DHT22;42884;50.718;4.630;2023-11-19T00:53:32;14.50;99.90
23873;DHT22;42884;50.718;4.630;2023-11-19T00:56:00;14.40;99.90
23873;DHT22;42884;50.718;4.630;2023-11-19T00:58:28;14.50;99.90
23873;DHT22;42884;50.718;4.630;2023-11-19T01:00:57;14.50;99.90
23873;DHT22;42884;50.718;4.630;2023-11-19T01:03:25;14.50;99.90
23873;DHT22;42884;50.718;4.630;2023-11-19T01:05:53;14.50;99.90
23873;DHT22;42884;50.718;4.630;2023-11-19T01:08:19;14.60;99.90
23873;DHT22;42884;50.718;4.630;2023-11-19T01:10:44;14.50;99.90
23873;DHT22;42884;50.718;4.630;2023-11-19T01:13:10;14.50;99.90
23873;DHT22;42884;50.718;4.630;2023-11-19T01:15:36;14.60;99.90
23873;DHT22;42884;50.718;4.630;2023-11-19T01:18:01;14.60;99.90
23873;DHT22;42884;50.718;4.630;2023-11-19T01:20:30;14.50;99.90
23873;DHT22;42884;50.718;4.630;2023-11-19T01:22:55;14.50;99.90
23873;DHT22;42884;50.718;4.630;2023-11-19T01:25:21;14.50;99.90
23873;DHT22;42884;50.718;4.630;2023-11-19T01:27:50;14.50;99.90
23873;DHT22;42884;50.718;4.630;2023-11-19T01:30:16;14.60;99.90
23873;DHT22;42884;50.718;4.630;2023-11-19T01:32:41;14.60;99.90
23873;DHT22;42884;50.718;4.630;2023-11-19T01:35:10;14.50;99.90
23873;DHT22;42884;50.718;4.630;2023-11-19T01:37:39;14.50;99.90
23873;DHT22;42884;50.718;4.630;2023-11-19T01:40:09;14.50;99.90
23873;DHT22;42884;50.718;4.630;2023-11-19T01:42:37;14.40;99.90
23873;DHT22;42884;50.718;4.630;2023-11-19T01:45:03;14.40;99.90
23873;DHT22;42884;50.718;4.630;2023-11-19T01:47:34;14.40;99.90
23873;DHT22;42884;50.718;4.630;2023-11-19T01:50:01;14.40;99.90
23873;DHT22;42884;50.718;4.630;2023-11-19T01:52:32;14.40;99.90
23873;DHT22;42884;50.718;4.630;2023-11-19T01:55:00;14.30;99.90
23873;DHT22;42884;50.718;4.630;2023-11-19T01:57:26;14.30;99.90
23873;DHT22;42884;50.718;4.630;2023-11-19T01:59:52;14.20;99.90
23873;DHT22;42884;50.718;4.630;2023-11-19T02:02:18;14.40;99.90
23873;DHT22;42884;50.718;4.630;2023-11-19T02:04:47;14.30;99.90
23873;DHT22;42884;50.718;4.630;2023-11-19T02:07:17;14.30;99.90
23873;DHT22;42884;50.718;4.630;2023-11-19T02:09:43;14.30;99.90
23873;DHT22;42884;50.718;4.630;2023-11-19T02:12:09;14.20;99.90
23873;DHT22;42884;50.718;4.630;2023-11-19T02:14:37;14.30;99.90
23873;DHT22;42884;50.718;4.630;2023-11-19T02:17:02;14.30;99.90
23873;DHT22;42884;50.718;4.630;2023-11-19T02:19:28;14.30;99.90
23873;DHT22;42884;50.718;4.630;2023-11-19T02:21:54;14.40;99.90
23873;DHT22;42884;50.718;4.630;2023-11-19T02:24:21;14.30;99.90
23873;DHT22;42884;50.718;4.630;2023-11-19T02:27:06;14.30;99.90
23873;DHT22;42884;50.718;4.630;2023-11-19T02:29:33;14.30;99.90
23873;DHT22;42884;50.718;4.630;2023-11-19T02:32:00;14.30;99.90
23873;DHT22;42884;50.718;4.630;2023-11-19T02:34:30;14.30;99.90
23873;DHT22;42884;50.718;4.630;2023-11-19T02:36:56;14.30;99.90
23873;DHT22;42884;50.718;4.630;2023-11-19T02:39:22;14.30;99.90
23873;DHT22;42884;50.718;4.630;2023-11-19T02:41:47;14.20;99.90
23873;DHT22;42884;50.718;4.630;2023-11-19T02:44:16;14.30;99.90
23873;DHT22;42884;50.718;4.630;2023-11-19T02:46:42;14.20;99.90
23873;DHT22;42884;50.718;4.630;2023-11-19T02:49:12;14.20;99.90
23873;DHT22;42884;50.718;4.630;2023-11-19T02:51:37;14.20;99.90
23873;DHT22;42884;50.718;4.630;2023-11-19T02:54:03;14.20;99.90
23873;DHT22;42884;50.718;4.630;2023-11-19T02:56:32;14.20;99.90
23873;DHT22;42884;50.718;4.630;2023-11-19T02:59:02;14.10;99.90
23873;DHT22;42884;50.718;4.630;2023-11-19T03:01:39;14.00;99.90
23873;DHT22;42884;50.718;4.630;2023-11-19T03:04:09;14.00;99.90
23873;DHT22;42884;50.718;4.630;2023-11-19T03:06:37;14.10;99.90
23873;DHT22;42884;50.718;4.630;2023-11-19T03:09:03;14.00;99.90
23873;DHT22;42884;50.718;4.630;2023-11-19T03:11:46;14.10;99.90
23873;DHT22;42884;50.718;4.630;2023-11-19T03:14:16;14.00;99.90
23873;DHT22;42884;50.718;4.630;2023-11-19T03:16:45;14.00;99.90
23873;DHT22;42884;50.718;4.630;2023-11-19T03:21:47;13.90;99.90
23873;DHT22;42884;50.718;4.630;2023-11-19T03:24:16;13.90;99.90
23873;DHT22;42884;50.718;4.630;2023-11-19T03:26:42;13.90;99.90
23873;DHT22;42884;50.718;4.630;2023-11-19T03:29:08;13.90;99.90
23873;DHT22;42884;50.718;4.630;2023-11-19T03:31:33;13.80;99.90
23873;DHT22;42884;50.718;4.630;2023-11-19T03:33:59;13.80;99.90
23873;DHT22;42884;50.718;4.630;2023-11-19T03:36:25;13.80;99.90
23873;DHT22;42884;50.718;4.630;2023-11-19T03:38:53;13.80;99.90
23873;DHT22;42884;50.718;4.630;2023-11-19T03:41:19;13.70;99.90
23873;DHT22;42884;50.718;4.630;2023-11-19T03:43:44;13.70;99.90
23873;DHT22;42884;50.718;4.630;2023-11-19T03:46:17;13.60;99.90
23873;DHT22;42884;50.718;4.630;2023-11-19T03:48:43;13.60;99.90
23873;DHT22;42884;50.718;4.630;2023-11-19T03:51:08;13.60;99.90
23873;DHT22;42884;50.718;4.630;2023-11-19T03:53:34;13.70;99.90
23873;DHT22;42884;50.718;4.630;2023-11-19T03:56:01;13.60;99.90
23873;DHT22;42884;50.718;4.630;2023-11-19T03:58:26;13.50;99.90
23873;DHT22;42884;50.718;4.630;2023-11-19T04:00:52;13.50;99.90
23873;DHT22;42884;50.718;4.630;2023-11-19T04:03:18;13.40;99.90
23873;DHT22;42884;50.718;4.630;2023-11-19T04:05:45;13.50;99.90
23873;DHT22;42884;50.718;4.630;2023-11-19T04:08:10;13.50;99.90
23873;DHT22;42884;50.718;4.630;2023-11-19T04:10:36;13.50;99.90
23873;DHT22;42884;50.718;4.630;2023-11-19T04:13:01;13.40;99.90
23873;DHT22;42884;50.718;4.630;2023-11-19T04:15:27;13.40;99.90
23873;DHT22;42884;50.718;4.630;2023-11-19T04:17:53;13.40;99.90
23873;DHT22;42884;50.718;4.630;2023-11-19T04:20:18;13.40;99.90
23873;DHT22;42884;50.718;4.630;2023-11-19T04:22:44;13.40;99.90
23873;DHT22;42884;50.718;4.630;2023-11-19T04:25:10;13.30;99.90
23873;DHT22;42884;50.718;4.630;2023-11-19T04:27:36;13.30;99.90
23873;DHT22;42884;50.718;4.630;2023-11-19T04:30:02;13.40;99.90
23873;DHT22;42884;50.718;4.630;2023-11-19T04:32:28;13.40;99.90
23873;DHT22;42884;50.718;4.630;2023-11-19T04:34:54;13.40;99.90
23873;DHT22;42884;50.718;4.630;2023-11-19T04:37:20;13.40;99.90
23873;DHT22;42884;50.718;4.630;2023-11-19T04:39:45;13.40;99.90
23873;DHT22;42884;50.718;4.630;2023-11-19T04:42:13;13.30;99.90
23873;DHT22;42884;50.718;4.630;2023-11-19T04:44:42;13.40;99.90
23873;DHT22;42884;50.718;4.630;2023-11-19T04:47:08;13.40;99.90
23873;DHT22;42884;50.718;4.630;2023-11-19T04:49:39;13.40;99.90
23873;DHT22;42884;50.718;4.630;2023-11-19T04:52:08;13.40;99.90
23873;DHT22;42884;50.718;4.630;2023-11-19T04:54:33;13.30;99.90
23873;DHT22;42884;50.718;4.630;2023-11-19T04:56:59;13.20;99.90
23873;DHT22;42884;50.718;4.630;2023-11-19T04:59:25;13.20;99.90
23873;DHT22;42884;50.718;4.630;2023-11-19T05:01:53;13.10;99.90
23873;DHT22;42884;50.718;4.630;2023-11-19T05:04:18;13.10;99.90
23873;DHT22;42884;50.718;4.630;2023-11-19T05:06:44;13.10;99.90
23873;DHT22;42884;50.718;4.630;2023-11-19T05:09:09;13.20;99.90
23873;DHT22;42884;50.718;4.630;2023-11-19T05:11:38;13.20;99.90
23873;DHT22;42884;50.718;4.630;2023-11-19T05:14:04;13.20;99.90
23873;DHT22;42884;50.718;4.630;2023-11-19T05:16:30;13.20;99.90
23873;DHT22;42884;50.718;4.630;2023-11-19T05:18:56;13.20;99.90
23873;DHT22;42884;50.718;4.630;2023-11-19T05:21:22;13.20;99.90
23873;DHT22;42884;50.718;4.630;2023-11-19T05:23:47;13.20;99.90
23873;DHT22;42884;50.718;4.630;2023-11-19T05:26:19;13.10;99.90
23873;DHT22;42884;50.718;4.630;2023-11-19T05:28:45;13.10;99.90
23873;DHT22;42884;50.718;4.630;2023-11-19T05:31:11;13.10;99.90
23873;DHT22;42884;50.718;4.630;2023-11-19T05:33:37;13.10;99.90
23873;DHT22;42884;50.718;4.630;2023-11-19T05:36:02;13.00;99.90
23873;DHT22;42884;50.718;4.630;2023-11-19T05:38:29;13.00;99.90
23873;DHT22;42884;50.718;4.630;2023-11-19T05:40:55;13.00;99.90
23873;DHT22;42884;50.718;4.630;2023-11-19T05:43:21;13.00;99.90
23873;DHT22;42884;50.718;4.630;2023-11-19T05:45:46;12.90;99.90
23873;DHT22;42884;50.718;4.630;2023-11-19T05:48:12;13.10;99.90
23873;DHT22;42884;50.718;4.630;2023-11-19T05:50:38;13.10;99.90
23873;DHT22;42884;50.718;4.630;2023-11-19T05:53:11;13.10;99.90
23873;DHT22;42884;50.718;4.630;2023-11-19T05:55:39;13.20;99.90
23873;DHT22;42884;50.718;4.630;2023-11-19T05:58:11;13.10;99.90
23873;DHT22;42884;50.718;4.630;2023-11-19T06:00:40;13.20;99.90
23873;DHT22;42884;50.718;4.630;2023-11-19T06:03:09;13.20;99.90
23873;DHT22;42884;50.718;4.630;2023-11-19T06:05:34;13.20;99.90
23873;DHT22;42884;50.718;4.630;2023-11-19T06:08:00;13.20;99.90
23873;DHT22;42884;50.718;4.630;2023-11-19T06:10:26;13.20;99.90
23873;DHT22;42884;50.718;4.630;2023-11-19T06:12:59;13.00;99.90
23873;DHT22;42884;50.718;4.630;2023-11-19T06:15:28;13.10;99.90
23873;DHT22;42884;50.718;4.630;2023-11-19T06:17:54;13.10;99.90
23873;DHT22;42884;50.718;4.630;2023-11-19T06:20:21;12.90;99.90
23873;DHT22;42884;50.718;4.630;2023-11-19T06:22:47;13.00;99.90
23873;DHT22;42884;50.718;4.630;2023-11-19T06:25:13;13.00;99.90
23873;DHT22;42884;50.718;4.630;2023-11-19T06:27:43;13.00;99.90
23873;DHT22;42884;50.718;4.630;2023-11-19T06:30:09;13.00;99.90
23873;DHT22;42884;50.718;4.630;2023-11-19T06:32:35;13.00;99.90
23873;DHT22;42884;50.718;4.630;2023-11-19T06:35:00;13.00;99.90
23873;DHT22;42884;50.718;4.630;2023-11-19T06:37:26;13.00;99.90
23873;DHT22;42884;50.718;4.630;2023-11-19T06:39:52;12.90;99.90
23873;DHT22;42884;50.718;4.630;2023-11-19T06:42:18;12.80;99.90
23873;DHT22;42884;50.718;4.630;2023-11-19T06:44:44;12.70;99.90
23873;DHT22;42884;50.718;4.630;2023-11-19T06:47:09;12.70;99.90
23873;DHT22;42884;50.718;4.630;2023-11-19T06:49:35;12.70;99.90
23873;DHT22;42884;50.718;4.630;2023-11-19T06:52:01;12.70;99.90
23873;DHT22;42884;50.718;4.630;2023-11-19T06:54:26;12.70;99.90
23873;DHT22;42884;50.718;4.630;2023-11-19T06:56:52;12.70;99.90
23873;DHT22;42884;50.718;4.630;2023-11-19T06:59:18;12.70;99.90
23873;DHT22;42884;50.718;4.630;2023-11-19T07:01:44;12.60;99.90
23873;DHT22;42884;50.718;4.630;2023-11-19T07:04:12;12.60;99.90
23873;DHT22;42884;50.718;4.630;2023-11-19T07:06:38;12.60;99.90
23873;DHT22;42884;50.718;4.630;2023-11-19T07:09:08;12.50;99.90
23873;DHT22;42884;50.718;4.630;2023-11-19T07:11:37;12.50;99.90
23873;DHT22;42884;50.718;4.630;2023-11-19T07:14:04;12.50;99.90
23873;DHT22;42884;50.718;4.630;2023-11-19T07:16:29;12.60;99.90
23873;DHT22;42884;50.718;4.630;2023-11-19T07:18:56;12.60;99.90
23873;DHT22;42884;50.718;4.630;2023-11-19T07:21:21;12.50;99.90
23873;DHT22;42884;50.718;4.630;2023-11-19T07:23:47;12.60;99.90
23873;DHT22;42884;50.718;4.630;2023-11-19T07:26:13;12.50;99.90
23873;DHT22;42884;50.718;4.630;2023-11-19T07:28:38;12.50;99.90
23873;DHT22;42884;50.718;4.630;2023-11-19T07:31:07;12.60;99.90
23873;DHT22;42884;50.718;4.630;2023-11-19T07:33:35;12.60;99.90
23873;DHT22;42884;50.718;4.630;2023-11-19T07:36:01;12.50;99.90
23873;DHT22;42884;50.718;4.630;2023-11-19T07:38:27;12.50;99.90
23873;DHT22;42884;50.718;4.630;2023-11-19T07:40:52;12.50;99.90
23873;DHT22;42884;50.718;4.630;2023-11-19T07:43:18;12.60;99.90
23873;DHT22;42884;50.718;4.630;2023-11-19T07:45:44;12.60;99.90
23873;DHT22;42884;50.718;4.630;2023-11-19T07:48:11;12.50;99.90
23873;DHT22;42884;50.718;4.630;2023-11-19T07:50:41;12.60;99.90
23873;DHT22;42884;50.718;4.630;2023-11-19T07:53:07;12.60;99.90
23873;DHT22;42884;50.718;4.630;2023-11-19T07:55:33;12.50;99.90
23873;DHT22;42884;50.718;4.630;2023-11-19T07:57:58;12.60;99.90
23873;DHT22;42884;50.718;4.630;2023-11-19T08:00:24;12.60;99.90
23873;DHT22;42884;50.718;4.630;2023-11-19T08:02:50;12.60;99.90
23873;DHT22;42884;50.718;4.630;2023-11-19T08:05:18;12.60;99.90
23873;DHT22;42884;50.718;4.630;2023-11-19T08:07:44;12.50;99.90
23873;DHT22;42884;50.718;4.630;2023-11-19T08:10:09;12.50;99.90
23873;DHT22;42884;50.718;4.630;2023-11-19T08:12:35;12.60;99.90
23873;DHT22;42884;50.718;4.630;2023-11-19T08:15:02;12.60;99.90
23873;DHT22;42884;50.718;4.630;2023-11-19T08:17:28;12.70;99.90
23873;DHT22;42884;50.718;4.630;2023-11-19T08:19:53;12.70;99.90
23873;DHT22;42884;50.718;4.630;2023-11-19T08:22:19;12.60;99.90
23873;DHT22;42884;50.718;4.630;2023-11-19T08:24:45;12.60;99.90
23873;DHT22;42884;50.718;4.630;2023-11-19T08:27:10;12.80;99.90
23873;DHT22;42884;50.718;4.630;2023-11-19T08:29:36;12.80;99.90
23873;DHT22;42884;50.718;4.630;2023-11-19T08:32:01;12.90;99.90
23873;DHT22;42884;50.718;4.630;2023-11-19T08:34:28;12.90;99.90
23873;DHT22;42884;50.718;4.630;2023-11-19T08:36:54;12.80;99.90
23873;DHT22;42884;50.718;4.630;2023-11-19T08:39:24;12.90;99.90
23873;DHT22;42884;50.718;4.630;2023-11-19T08:41:49;13.00;99.90
23873;DHT22;42884;50.718;4.630;2023-11-19T08:44:15;13.00;99.90
23873;DHT22;42884;50.718;4.630;2023-11-19T08:46:48;13.00;99.90
23873;DHT22;42884;50.718;4.630;2023-11-19T08:49:14;13.10;99.90
23873;DHT22;42884;50.718;4.630;2023-11-19T08:51:40;13.20;99.90
23873;DHT22;42884;50.718;4.630;2023-11-19T08:54:05;13.20;99.90
23873;DHT22;42884;50.718;4.630;2023-11-19T08:56:31;13.20;99.90
23873;DHT22;42884;50.718;4.630;2023-11-19T08:59:01;13.20;99.90
23873;DHT22;42884;50.718;4.630;2023-11-19T09:01:27;13.30;99.90
23873;DHT22;42884;50.718;4.630;2023-11-19T09:03:52;13.20;99.90
23873;DHT22;42884;50.718;4.630;2023-11-19T09:06:18;13.20;99.90
23873;DHT22;42884;50.718;4.630;2023-11-19T09:08:44;13.30;99.90
23873;DHT22;42884;50.718;4.630;2023-11-19T09:11:09;13.40;99.90
23873;DHT22;42884;50.718;4.630;2023-11-19T09:13:35;13.50;99.90
23873;DHT22;42884;50.718;4.630;2023-11-19T09:16:01;13.50;99.90
23873;DHT22;42884;50.718;4.630;2023-11-19T09:18:29;13.40;99.90
23873;DHT22;42884;50.718;4.630;2023-11-19T09:20:55;13.40;99.90
23873;DHT22;42884;50.718;4.630;2023-11-19T09:23:21;13.40;99.90
23873;DHT22;42884;50.718;4.630;2023-11-19T09:25:47;13.40;99.90
23873;DHT22;42884;50.718;4.630;2023-11-19T09:28:12;13.30;99.90
23873;DHT22;42884;50.718;4.630;2023-11-19T09:30:39;13.20;99.90
23873;DHT22;42884;50.718;4.630;2023-11-19T09:33:05;13.20;99.90
23873;DHT22;42884;50.718;4.630;2023-11-19T09:35:31;13.10;99.90
23873;DHT22;42884;50.718;4.630;2023-11-19T09:37:56;13.20;99.90
23873;DHT22;42884;50.718;4.630;2023-11-19T09:40:23;13.20;99.90
23873;DHT22;42884;50.718;4.630;2023-11-19T09:42:48;13.20;99.90
23873;DHT22;42884;50.718;4.630;2023-11-19T09:45:19;13.30;99.90
23873;DHT22;42884;50.718;4.630;2023-11-19T09:47:48;13.30;99.90
23873;DHT22;42884;50.718;4.630;2023-11-19T09:50:18;13.40;99.90
23873;DHT22;42884;50.718;4.630;2023-11-19T09:52:47;13.30;99.90
23873;DHT22;42884;50.718;4.630;2023-11-19T09:55:13;13.40;99.90
23873;DHT22;42884;50.718;4.630;2023-11-19T09:57:39;13.40;99.90
23873;DHT22;42884;50.718;4.630;2023-11-19T10:00:06;13.50;99.90
23873;DHT22;42884;50.718;4.630;2023-11-19T10:02:33;13.40;99.90
23873;DHT22;42884;50.718;4.630;2023-11-19T10:04:59;13.50;99.90
23873;DHT22;42884;50.718;4.630;2023-11-19T10:07:25;13.40;99.90
23873;DHT22;42884;50.718;4.630;2023-11-19T10:09:50;13.40;99.90
23873;DHT22;42884;50.718;4.630;2023-11-19T10:12:16;13.50;99.90
23873;DHT22;42884;50.718;4.630;2023-11-19T10:14:42;13.50;99.90
23873;DHT22;42884;50.718;4.630;2023-11-19T10:17:08;13.60;99.90
23873;DHT22;42884;50.718;4.630;2023-11-19T10:19:34;13.70;99.90
23873;DHT22;42884;50.718;4.630;2023-11-19T10:22:04;13.80;99.90
23873;DHT22;42884;50.718;4.630;2023-11-19T10:24:36;13.90;99.90
23873;DHT22;42884;50.718;4.630;2023-11-19T10:27:07;14.20;99.90
23873;DHT22;42884;50.718;4.630;2023-11-19T10:29:37;14.40;99.90
23873;DHT22;42884;50.718;4.630;2023-11-19T10:32:03;14.70;99.90
23873;DHT22;42884;50.718;4.630;2023-11-19T10:34:29;15.00;99.90
23873;DHT22;42884;50.718;4.630;2023-11-19T10:36:55;15.30;99.90
23873;DHT22;42884;50.718;4.630;2023-11-19T10:39:21;15.80;99.90
23873;DHT22;42884;50.718;4.630;2023-11-19T10:41:46;15.90;99.90
23873;DHT22;42884;50.718;4.630;2023-11-19T10:44:12;15.90;99.90
23873;DHT22;42884;50.718;4.630;2023-11-19T10:46:54;16.10;99.90
23873;DHT22;42884;50.718;4.630;2023-11-19T10:49:19;16.10;99.90
23873;DHT22;42884;50.718;4.630;2023-11-19T10:51:45;15.60;99.90
23873;DHT22;42884;50.718;4.630;2023-11-19T10:54:11;15.70;99.90
23873;DHT22;42884;50.718;4.630;2023-11-19T10:56:40;15.80;99.90
23873;DHT22;42884;50.718;4.630;2023-11-19T10:59:10;15.90;99.90
23873;DHT22;42884;50.718;4.630;2023-11-19T11:01:41;16.00;99.90
23873;DHT22;42884;50.718;4.630;2023-11-19T11:04:15;16.00;99.90
23873;DHT22;42884;50.718;4.630;2023-11-19T11:06:42;16.20;99.90
23873;DHT22;42884;50.718;4.630;2023-11-19T11:09:15;16.40;99.90
23873;DHT22;42884;50.718;4.630;2023-11-19T11:11:40;17.00;99.90
23873;DHT22;42884;50.718;4.630;2023-11-19T11:14:10;17.20;99.90
23873;DHT22;42884;50.718;4.630;2023-11-19T11:16:42;16.70;99.90
23873;DHT22;42884;50.718;4.630;2023-11-19T11:19:10;16.30;99.90
23873;DHT22;42884;50.718;4.630;2023-11-19T11:21:38;15.90;99.90
23873;DHT22;42884;50.718;4.630;2023-11-19T11:24:26;15.70;99.90
23873;DHT22;42884;50.718;4.630;2023-11-19T11:37:34;14.40;99.90
23873;DHT22;42884;50.718;4.630;2023-11-19T11:40:02;14.20;99.90
23873;DHT22;42884;50.718;4.630;2023-11-19T11:42:36;14.40;99.90
23873;DHT22;42884;50.718;4.630;2023-11-19T11:50:08;15.50;99.90
23873;DHT22;42884;50.718;4.630;2023-11-19T11:52:55;15.90;99.90
23873;DHT22;42884;50.718;4.630;2023-11-19T11:55:23;16.40;99.90
23873;DHT22;42884;50.718;4.630;2023-11-19T11:57:49;16.50;99.90
23873;DHT22;42884;50.718;4.630;2023-11-19T12:00:21;16.80;99.90
23873;DHT22;42884;50.718;4.630;2023-11-19T12:02:47;17.10;99.90
23873;DHT22;42884;50.718;4.630;2023-11-19T12:05:14;17.00;99.90
23873;DHT22;42884;50.718;4.630;2023-11-19T12:07:40;16.90;99.90
23873;DHT22;42884;50.718;4.630;2023-11-19T12:10:06;16.60;99.90
23873;DHT22;42884;50.718;4.630;2023-11-19T12:12:39;16.90;99.90
23873;DHT22;42884;50.718;4.630;2023-11-19T12:15:10;16.70;99.90
23873;DHT22;42884;50.718;4.630;2023-11-19T12:17:36;16.70;99.90
23873;DHT22;42884;50.718;4.630;2023-11-19T12:20:04;17.20;99.90
23873;DHT22;42884;50.718;4.630;2023-11-19T12:22:33;17.30;99.90
23873;DHT22;42884;50.718;4.630;2023-11-19T12:25:00;17.60;99.90
23873;DHT22;42884;50.718;4.630;2023-11-19T12:27:27;17.40;99.90
23873;DHT22;42884;50.718;4.630;2023-11-19T12:29:53;17.30;99.90
23873;DHT22;42884;50.718;4.630;2023-11-19T12:32:19;17.20;99.90
23873;DHT22;42884;50.718;4.630;2023-11-19T12:34:47;16.70;99.90
23873;DHT22;42884;50.718;4.630;2023-11-19T12:37:13;16.50;99.90
23873;DHT22;42884;50.718;4.630;2023-11-19T12:39:39;16.10;99.90
23873;DHT22;42884;50.718;4.630;2023-11-19T12:42:05;15.60;99.90
23873;DHT22;42884;50.718;4.630;2023-11-19T12:44:31;15.20;99.90
23873;DHT22;42884;50.718;4.630;2023-11-19T12:47:03;15.00;99.90
23873;DHT22;42884;50.718;4.630;2023-11-19T12:49:29;14.90;99.90
23873;DHT22;42884;50.718;4.630;2023-11-19T12:51:55;14.70;99.90
23873;DHT22;42884;50.718;4.630;2023-11-19T12:54:36;14.80;99.90
23873;DHT22;42884;50.718;4.630;2023-11-19T12:57:04;15.00;99.90
23873;DHT22;42884;50.718;4.630;2023-11-19T12:59:36;14.90;99.90
23873;DHT22;42884;50.718;4.630;2023-11-19T13:02:01;14.90;99.90
23873;DHT22;42884;50.718;4.630;2023-11-19T13:04:30;15.10;99.90
23873;DHT22;42884;50.718;4.630;2023-11-19T13:06:59;15.00;99.90
23873;DHT22;42884;50.718;4.630;2023-11-19T13:09:26;15.30;99.90
23873;DHT22;42884;50.718;4.630;2023-11-19T13:11:52;15.20;99.90
23873;DHT22;42884;50.718;4.630;2023-11-19T13:14:18;15.00;99.90
23873;DHT22;42884;50.718;4.630;2023-11-19T13:16:44;14.90;99.90
23873;DHT22;42884;50.718;4.630;2023-11-19T13:19:14;14.70;99.90
23873;DHT22;42884;50.718;4.630;2023-11-19T13:21:44;14.60;99.90
23873;DHT22;42884;50.718;4.630;2023-11-19T13:24:12;14.60;99.90
23873;DHT22;42884;50.718;4.630;2023-11-19T13:26:41;14.60;99.90
23873;DHT22;42884;50.718;4.630;2023-11-19T13:29:07;14.50;99.90
23873;DHT22;42884;50.718;4.630;2023-11-19T13:31:32;14.00;99.90
23873;DHT22;42884;50.718;4.630;2023-11-19T13:33:58;14.00;99.90
23873;DHT22;42884;50.718;4.630;2023-11-19T13:36:24;13.90;99.90
23873;DHT22;42884;50.718;4.630;2023-11-19T13:38:50;13.80;99.90
23873;DHT22;42884;50.718;4.630;2023-11-19T13:41:16;13.90;99.90
23873;DHT22;42884;50.718;4.630;2023-11-19T13:43:42;13.90;99.90
23873;DHT22;42884;50.718;4.630;2023-11-19T13:46:08;13.80;99.90
23873;DHT22;42884;50.718;4.630;2023-11-19T13:48:37;13.80;99.90
23873;DHT22;42884;50.718;4.630;2023-11-19T13:51:02;13.60;99.90
23873;DHT22;42884;50.718;4.630;2023-11-19T13:53:28;13.60;99.90
23873;DHT22;42884;50.718;4.630;2023-11-19T13:55:54;13.80;99.90
23873;DHT22;42884;50.718;4.630;2023-11-19T13:58:19;14.30;99.90
23873;DHT22;42884;50.718;4.630;2023-11-19T14:00:45;14.80;99.90
23873;DHT22;42884;50.718;4.630;2023-11-19T14:03:11;14.90;99.90
23873;DHT22;42884;50.718;4.630;2023-11-19T14:05:37;14.90;99.90
23873;DHT22;42884;50.718;4.630;2023-11-19T14:08:06;14.70;99.90
23873;DHT22;42884;50.718;4.630;2023-11-19T14:10:43;14.60;99.90
23873;DHT22;42884;50.718;4.630;2023-11-19T14:13:08;14.50;99.90
23873;DHT22;42884;50.718;4.630;2023-11-19T14:15:34;14.40;99.90
23873;DHT22;42884;50.718;4.630;2023-11-19T14:18:01;14.40;99.90
23873;DHT22;42884;50.718;4.630;2023-11-19T14:20:27;14.40;99.90
23873;DHT22;42884;50.718;4.630;2023-11-19T14:22:52;14.20;99.90
23873;DHT22;42884;50.718;4.630;2023-11-19T14:25:18;14.10;99.90
23873;DHT22;42884;50.718;4.630;2023-11-19T14:27:44;14.10;99.90
23873;DHT22;42884;50.718;4.630;2023-11-19T14:30:13;14.10;99.90
23873;DHT22;42884;50.718;4.630;2023-11-19T14:32:39;14.10;99.90
23873;DHT22;42884;50.718;4.630;2023-11-19T14:35:05;14.10;99.90
23873;DHT22;42884;50.718;4.630;2023-11-19T14:37:31;14.10;99.90
23873;DHT22;42884;50.718;4.630;2023-11-19T14:39:59;14.00;99.90
23873;DHT22;42884;50.718;4.630;2023-11-19T14:42:26;14.10;99.90
23873;DHT22;42884;50.718;4.630;2023-11-19T14:44:52;14.00;99.90
23873;DHT22;42884;50.718;4.630;2023-11-19T14:47:20;14.10;99.90
23873;DHT22;42884;50.718;4.630;2023-11-19T14:49:46;14.20;99.90
23873;DHT22;42884;50.718;4.630;2023-11-19T14:52:12;14.10;99.90
23873;DHT22;42884;50.718;4.630;2023-11-19T14:54:38;14.00;99.90
23873;DHT22;42884;50.718;4.630;2023-11-19T14:57:04;14.00;99.90
23873;DHT22;42884;50.718;4.630;2023-11-19T14:59:34;13.90;99.90
23873;DHT22;42884;50.718;4.630;2023-11-19T15:02:03;13.80;99.90
23873;DHT22;42884;50.718;4.630;2023-11-19T15:04:29;13.70;99.90
23873;DHT22;42884;50.718;4.630;2023-11-19T15:06:57;13.80;99.90
23873;DHT22;42884;50.718;4.630;2023-11-19T15:09:23;13.70;99.90
23873;DHT22;42884;50.718;4.630;2023-11-19T15:11:49;13.70;99.90
23873;DHT22;42884;50.718;4.630;2023-11-19T15:14:16;13.80;99.90
23873;DHT22;42884;50.718;4.630;2023-11-19T15:16:44;13.70;99.90
23873;DHT22;42884;50.718;4.630;2023-11-19T15:19:10;13.80;99.90
23873;DHT22;42884;50.718;4.630;2023-11-19T15:21:35;13.70;99.90
23873;DHT22;42884;50.718;4.630;2023-11-19T15:24:01;13.60;99.90
23873;DHT22;42884;50.718;4.630;2023-11-19T15:26:30;13.60;99.90
23873;DHT22;42884;50.718;4.630;2023-11-19T15:28:55;13.50;99.90
23873;DHT22;42884;50.718;4.630;2023-11-19T15:31:23;13.50;99.90
23873;DHT22;42884;50.718;4.630;2023-11-19T15:33:48;13.60;99.90
23873;DHT22;42884;50.718;4.630;2023-11-19T15:36:14;13.60;99.90
23873;DHT22;42884;50.718;4.630;2023-11-19T15:38:40;13.60;99.90
23873;DHT22;42884;50.718;4.630;2023-11-19T15:41:08;13.50;99.90
23873;DHT22;42884;50.718;4.630;2023-11-19T15:43:34;13.60;99.90
23873;DHT22;42884;50.718;4.630;2023-11-19T15:45:59;13.60;99.90
23873;DHT22;42884;50.718;4.630;2023-11-19T15:48:25;13.60;99.90